Main page
METAR-TAF:

METAR-TAF

Airports :

RAF Marham

Marham, England

latitude: 52-39N, longitude: 000-34E, elevation: 23 m

Current weather observation

The report was made 30 minutes ago, at 20:50 UTC
Wind 6 kt from the South/Southwest
Temperature 13°C
Humidity 94%
Pressure 1005 hPa
Visibility 10 km or more
no clouds below 1500 m and no cumulonimbus

METAR: EGYM 282050Z 21006KT CAVOK 13/12 Q1005 NOSIG RMK BLU BLU

Time: 22:20 (21:20 UTC)

Forecast

The report was made 2 hours and 2 minutes ago, at 19:18 UTC
Forecast valid from 28 at 21 UTC to 29 at 06 UTC
Wind 10 kt from the Southwest
Visibility 10 km or more
Scattered clouds at a height of 4000 ft
Probability 30% :
Temporary
from 28 at 21 UTC to 28 at 22 UTC
Visibility: 7000 m
rain showers
Temporary
from 28 at 22 UTC to 29 at 06 UTC
Wind 15 kt from the Southwest with gusts up to 25 kt

TAF: EGYM 281918Z 2821/2906 22010KT 9999 SCT040 PROB30 TEMPO 2821/2822 7000 SHRA TEMPO 2822/2906 22015G25KT

Weather observations and forecasts of more than 4000 airports (METAR and TAF reports).

The available stations are represented by yellow and red dots on the map.

Hover mouse over dot to see the name of the station.

Then click to see weather observations and forecasts.

To change the map : click on the green buttons with a black cross to zoom in, on the green button with a dash to zoom out, or on the green arrows for adjacent maps.


METAR-TAF: